sensor_id;sensor_type;location;lat;lon;timestamp;pressure;altitude;pressure_sealevel;temperature;humidity
48630;BME280;34426;52.180;4.462;2023-04-21T00:00:06;101718.97;;;8.84;81.80
48630;BME280;34426;52.180;4.462;2023-04-21T00:02:34;101708.34;;;8.92;82.72
48630;BME280;34426;52.180;4.462;2023-04-21T00:05:01;101692.44;;;8.93;82.46
48630;BME280;34426;52.180;4.462;2023-04-21T00:07:30;101671.22;;;8.92;82.46
48630;BME280;34426;52.180;4.462;2023-04-21T00:09:58;101674.72;;;8.87;83.31
48630;BME280;34426;52.180;4.462;2023-04-21T00:12:26;101673.38;;;8.90;83.60
48630;BME280;34426;52.180;4.462;2023-04-21T00:14:53;101669.50;;;8.91;83.29
48630;BME280;34426;52.180;4.462;2023-04-21T00:17:20;101674.00;;;8.92;83.84
48630;BME280;34426;52.180;4.462;2023-04-21T00:19:48;101688.09;;;8.97;83.72
48630;BME280;34426;52.180;4.462;2023-04-21T00:22:15;101689.66;;;8.93;83.52
48630;BME280;34426;52.180;4.462;2023-04-21T00:24:44;101686.38;;;8.96;83.75
48630;BME280;34426;52.180;4.462;2023-04-21T00:27:11;101686.56;;;8.83;84.08
48630;BME280;34426;52.180;4.462;2023-04-21T00:29:39;101695.09;;;8.88;84.63
48630;BME280;34426;52.180;4.462;2023-04-21T00:32:06;101691.22;;;8.89;84.79
48630;BME280;34426;52.180;4.462;2023-04-21T00:34:33;101686.56;;;8.83;84.30
48630;BME280;34426;52.180;4.462;2023-04-21T00:37:00;101683.78;;;8.83;84.78
48630;BME280;34426;52.180;4.462;2023-04-21T00:39:28;101669.38;;;8.86;84.84
48630;BME280;34426;52.180;4.462;2023-04-21T00:41:57;101668.13;;;8.82;84.81
48630;BME280;34426;52.180;4.462;2023-04-21T00:44:24;101662.69;;;8.87;85.14
48630;BME280;34426;52.180;4.462;2023-04-21T00:46:52;101651.31;;;8.88;84.48
48630;BME280;34426;52.180;4.462;2023-04-21T00:49:19;101658.44;;;8.84;84.73
48630;BME280;34426;52.180;4.462;2023-04-21T00:51:47;101645.56;;;8.83;84.87
48630;BME280;34426;52.180;4.462;2023-04-21T00:54:15;101640.56;;;8.74;84.89
48630;BME280;34426;52.180;4.462;2023-04-21T00:56:43;101621.66;;;8.76;85.62
48630;BME280;34426;52.180;4.462;2023-04-21T00:59:12;101626.75;;;8.79;85.51
48630;BME280;34426;52.180;4.462;2023-04-21T01:01:40;101635.59;;;8.76;85.95
48630;BME280;34426;52.180;4.462;2023-04-21T01:04:07;101637.91;;;8.79;85.58
48630;BME280;34426;52.180;4.462;2023-04-21T01:06:35;101628.47;;;8.80;86.30
48630;BME280;34426;52.180;4.462;2023-04-21T01:09:03;101626.28;;;8.82;86.06
48630;BME280;34426;52.180;4.462;2023-04-21T01:11:30;101628.94;;;8.77;85.75
48630;BME280;34426;52.180;4.462;2023-04-21T01:13:58;101626.28;;;8.82;86.59
48630;BME280;34426;52.180;4.462;2023-04-21T01:16:27;101629.78;;;8.77;86.34
48630;BME280;34426;52.180;4.462;2023-04-21T01:18:55;101632.81;;;8.76;86.50
48630;BME280;34426;52.180;4.462;2023-04-21T01:21:22;101632.19;;;8.74;86.77
48630;BME280;34426;52.180;4.462;2023-04-21T01:23:51;101633.44;;;8.78;86.19
48630;BME280;34426;52.180;4.462;2023-04-21T01:26:18;101627.53;;;8.86;87.10
48630;BME280;34426;52.180;4.462;2023-04-21T01:28:46;101616.06;;;8.76;86.46
48630;BME280;34426;52.180;4.462;2023-04-21T01:31:13;101609.28;;;8.72;87.02
48630;BME280;34426;52.180;4.462;2023-04-21T01:33:40;101616.06;;;8.76;86.88
48630;BME280;34426;52.180;4.462;2023-04-21T01:36:09;101615.84;;;8.77;86.98
48630;BME280;34426;52.180;4.462;2023-04-21T01:38:38;101611.59;;;8.75;86.93
48630;BME280;34426;52.180;4.462;2023-04-21T01:41:08;101613.16;;;8.71;87.08
48630;BME280;34426;52.180;4.462;2023-04-21T01:43:36;101610.34;;;8.71;87.04
48630;BME280;34426;52.180;4.462;2023-04-21T01:46:03;101614.59;;;8.61;87.63
48630;BME280;34426;52.180;4.462;2023-04-21T01:48:31;101612.50;;;8.57;87.62
48630;BME280;34426;52.180;4.462;2023-04-21T01:50:58;101602.34;;;8.62;87.30
48630;BME280;34426;52.180;4.462;2023-04-21T01:53:25;101594.56;;;8.53;88.15
48630;BME280;34426;52.180;4.462;2023-04-21T01:55:52;101603.91;;;8.58;87.37
48630;BME280;34426;52.180;4.462;2023-04-21T01:58:22;101602.69;;;8.54;88.08
48630;BME280;34426;52.180;4.462;2023-04-21T02:00:49;101594.41;;;8.48;87.92
48630;BME280;34426;52.180;4.462;2023-04-21T02:03:16;101593.22;;;8.55;88.10
48630;BME280;34426;52.180;4.462;2023-04-21T02:05:43;101591.84;;;8.46;88.11
48630;BME280;34426;52.180;4.462;2023-04-21T02:08:10;101589.06;;;8.46;88.77
48630;BME280;34426;52.180;4.462;2023-04-21T02:10:37;101577.28;;;8.44;88.72
48630;BME280;34426;52.180;4.462;2023-04-21T02:13:05;101576.69;;;8.42;89.01
48630;BME280;34426;52.180;4.462;2023-04-21T02:15:34;101574.97;;;8.41;88.63
48630;BME280;34426;52.180;4.462;2023-04-21T02:18:03;101570.03;;;8.43;88.19
48630;BME280;34426;52.180;4.462;2023-04-21T02:20:30;101569.25;;;8.36;88.31
48630;BME280;34426;52.180;4.462;2023-04-21T02:22:58;101575.91;;;8.35;88.16
48630;BME280;34426;52.180;4.462;2023-04-21T02:25:25;101575.06;;;8.34;88.80
48630;BME280;34426;52.180;4.462;2023-04-21T02:27:52;101567.84;;;8.27;88.67
48630;BME280;34426;52.180;4.462;2023-04-21T02:30:20;101567.72;;;8.40;89.28
48630;BME280;34426;52.180;4.462;2023-04-21T02:32:49;101563.06;;;8.34;89.06
48630;BME280;34426;52.180;4.462;2023-04-21T02:35:17;101579.84;;;8.27;89.28
48630;BME280;34426;52.180;4.462;2023-04-21T02:37:44;101584.09;;;8.30;89.41
48630;BME280;34426;52.180;4.462;2023-04-21T02:40:12;101578.94;;;8.33;89.68
48630;BME280;34426;52.180;4.462;2023-04-21T02:42:39;101581.72;;;8.33;89.51
48630;BME280;34426;52.180;4.462;2023-04-21T02:45:07;101568.94;;;8.26;89.86
48630;BME280;34426;52.180;4.462;2023-04-21T02:47:34;101574.75;;;8.24;89.71
48630;BME280;34426;52.180;4.462;2023-04-21T02:50:04;101564.94;;;8.22;90.15
48630;BME280;34426;52.180;4.462;2023-04-21T02:52:35;101554.75;;;8.27;89.66
48630;BME280;34426;52.180;4.462;2023-04-21T02:55:03;101554.94;;;8.32;90.29
48630;BME280;34426;52.180;4.462;2023-04-21T02:57:31;101557.94;;;8.31;90.47
48630;BME280;34426;52.180;4.462;2023-04-21T02:59:59;101548.97;;;8.29;90.08
48630;BME280;34426;52.180;4.462;2023-04-21T03:02:26;101552.22;;;8.26;89.59
48630;BME280;34426;52.180;4.462;2023-04-21T03:04:54;101541.66;;;8.16;90.03
48630;BME280;34426;52.180;4.462;2023-04-21T03:07:23;101531.84;;;8.25;90.12
48630;BME280;34426;52.180;4.462;2023-04-21T03:09:50;101541.06;;;8.26;90.17
48630;BME280;34426;52.180;4.462;2023-04-21T03:12:17;101538.91;;;8.28;90.46
48630;BME280;34426;52.180;4.462;2023-04-21T03:14:45;101535.63;;;8.31;89.93
48630;BME280;34426;52.180;4.462;2023-04-21T03:17:12;101542.78;;;8.27;90.01
48630;BME280;34426;52.180;4.462;2023-04-21T03:19:40;101541.69;;;8.28;90.75
48630;BME280;34426;52.180;4.462;2023-04-21T03:22:07;101538.78;;;8.23;90.38
48630;BME280;34426;52.180;4.462;2023-04-21T03:24:36;101547.38;;;8.21;91.06
48630;BME280;34426;52.180;4.462;2023-04-21T03:27:05;101546.53;;;8.21;90.75
48630;BME280;34426;52.180;4.462;2023-04-21T03:29:34;101542.03;;;8.20;90.58
48630;BME280;34426;52.180;4.462;2023-04-21T03:32:01;101548.09;;;8.17;90.81
48630;BME280;34426;52.180;4.462;2023-04-21T03:34:29;101547.94;;;8.12;91.02
48630;BME280;34426;52.180;4.462;2023-04-21T03:36:56;101546.69;;;8.08;91.49
48630;BME280;34426;52.180;4.462;2023-04-21T03:39:24;101549.81;;;7.99;91.08
48630;BME280;34426;52.180;4.462;2023-04-21T03:41:53;101542.81;;;8.09;91.41
48630;BME280;34426;52.180;4.462;2023-04-21T03:44:20;101533.00;;;8.06;91.29
48630;BME280;34426;52.180;4.462;2023-04-21T03:46:50;101516.38;;;7.99;91.96
48630;BME280;34426;52.180;4.462;2023-04-21T03:49:18;101523.19;;;8.04;90.97
48630;BME280;34426;52.180;4.462;2023-04-21T03:51:45;101513.59;;;7.99;91.16
48630;BME280;34426;52.180;4.462;2023-04-21T03:54:13;101520.84;;;8.00;91.23
48630;BME280;34426;52.180;4.462;2023-04-21T03:56:41;101502.13;;;8.08;91.32
48630;BME280;34426;52.180;4.462;2023-04-21T03:59:10;101510.72;;;8.06;91.31
48630;BME280;34426;52.180;4.462;2023-04-21T04:01:37;101501.59;;;7.99;91.23
48630;BME280;34426;52.180;4.462;2023-04-21T04:04:04;101502.69;;;7.98;91.94
48630;BME280;34426;52.180;4.462;2023-04-21T04:06:32;101493.38;;;8.04;91.40
48630;BME280;34426;52.180;4.462;2023-04-21T04:08:59;101499.66;;;7.99;91.84
48630;BME280;34426;52.180;4.462;2023-04-21T04:11:26;101497.97;;;7.98;91.65
48630;BME280;34426;52.180;4.462;2023-04-21T04:13:54;101493.31;;;7.92;91.67
48630;BME280;34426;52.180;4.462;2023-04-21T04:16:23;101494.03;;;7.88;92.08
48630;BME280;34426;52.180;4.462;2023-04-21T04:18:51;101495.03;;;7.93;92.26
48630;BME280;34426;52.180;4.462;2023-04-21T04:21:18;101494.56;;;7.96;92.29
48630;BME280;34426;52.180;4.462;2023-04-21T04:23:48;101500.59;;;7.93;92.11
48630;BME280;34426;52.180;4.462;2023-04-21T04:26:16;101496.72;;;7.94;92.13
48630;BME280;34426;52.180;4.462;2023-04-21T04:28:43;101493.72;;;7.96;92.01
48630;BME280;34426;52.180;4.462;2023-04-21T04:31:11;101497.97;;;7.98;92.19
48630;BME280;34426;52.180;4.462;2023-04-21T04:33:42;101488.97;;;7.96;92.42
48630;BME280;34426;52.180;4.462;2023-04-21T04:36:10;101483.78;;;8.00;91.88
48630;BME280;34426;52.180;4.462;2023-04-21T04:38:37;101474.81;;;7.98;92.55
48630;BME280;34426;52.180;4.462;2023-04-21T04:41:05;101483.41;;;7.96;92.82
48630;BME280;34426;52.180;4.462;2023-04-21T04:43:33;101484.66;;;8.00;92.73
48630;BME280;34426;52.180;4.462;2023-04-21T04:46:00;101490.22;;;8.00;92.60
48630;BME280;34426;52.180;4.462;2023-04-21T04:48:28;101490.59;;;8.04;92.40
48630;BME280;34426;52.180;4.462;2023-04-21T04:50:57;101491.06;;;8.01;92.58
48630;BME280;34426;52.180;4.462;2023-04-21T04:53:26;101500.50;;;8.00;92.89
48630;BME280;34426;52.180;4.462;2023-04-21T04:55:53;101497.34;;;7.96;92.64
48630;BME280;34426;52.180;4.462;2023-04-21T04:58:21;101495.63;;;7.95;92.63
48630;BME280;34426;52.180;4.462;2023-04-21T05:00:48;101488.22;;;7.89;93.17
48630;BME280;34426;52.180;4.462;2023-04-21T05:03:16;101498.09;;;8.04;93.08
48630;BME280;34426;52.180;4.462;2023-04-21T05:05:43;101511.88;;;7.98;92.77
48630;BME280;34426;52.180;4.462;2023-04-21T05:08:13;101525.28;;;7.90;93.39
48630;BME280;34426;52.180;4.462;2023-04-21T05:10:40;101514.66;;;7.98;93.17
48630;BME280;34426;52.180;4.462;2023-04-21T05:13:07;101503.63;;;7.92;92.98
48630;BME280;34426;52.180;4.462;2023-04-21T05:15:35;101505.69;;;7.96;93.76
48630;BME280;34426;52.180;4.462;2023-04-21T05:18:02;101507.41;;;7.97;92.96
48630;BME280;34426;52.180;4.462;2023-04-21T05:20:30;101522.09;;;8.05;93.24
48630;BME280;34426;52.180;4.462;2023-04-21T05:22:57;101507.69;;;8.08;92.55
48630;BME280;34426;52.180;4.462;2023-04-21T05:25:27;101507.69;;;8.08;92.85
48630;BME280;34426;52.180;4.462;2023-04-21T05:27:53;101503.22;;;8.07;92.89
48630;BME280;34426;52.180;4.462;2023-04-21T05:30:21;101503.69;;;8.04;92.95
48630;BME280;34426;52.180;4.462;2023-04-21T05:32:48;101503.34;;;8.12;93.18
48630;BME280;34426;52.180;4.462;2023-04-21T05:35:16;101502.28;;;8.13;93.32
48630;BME280;34426;52.180;4.462;2023-04-21T05:37:43;101511.09;;;8.10;93.36
48630;BME280;34426;52.180;4.462;2023-04-21T05:40:10;101513.56;;;8.18;93.44
48630;BME280;34426;52.180;4.462;2023-04-21T05:42:39;101519.75;;;8.20;93.67
48630;BME280;34426;52.180;4.462;2023-04-21T05:45:07;101516.84;;;8.26;93.08
48630;BME280;34426;52.180;4.462;2023-04-21T05:47:35;101524.34;;;8.26;92.76
48630;BME280;34426;52.180;4.462;2023-04-21T05:50:02;101520.63;;;8.32;92.70
48630;BME280;34426;52.180;4.462;2023-04-21T05:52:29;101521.03;;;8.36;92.84
48630;BME280;34426;52.180;4.462;2023-04-21T05:54:58;101523.47;;;8.44;92.83
48630;BME280;34426;52.180;4.462;2023-04-21T05:57:25;101520.84;;;8.30;92.85
48630;BME280;34426;52.180;4.462;2023-04-21T05:59:55;101525.28;;;8.38;92.96
48630;BME280;34426;52.180;4.462;2023-04-21T06:02:22;101526.03;;;8.45;92.69
48630;BME280;34426;52.180;4.462;2023-04-21T06:04:50;101526.03;;;8.45;93.00
48630;BME280;34426;52.180;4.462;2023-04-21T06:07:17;101529.09;;;8.55;92.50
48630;BME280;34426;52.180;4.462;2023-04-21T06:09:48;101515.63;;;8.52;92.43
48630;BME280;34426;52.180;4.462;2023-04-21T06:12:16;101515.28;;;8.60;93.05
48630;BME280;34426;52.180;4.462;2023-04-21T06:14:43;101519.41;;;8.70;92.39
48630;BME280;34426;52.180;4.462;2023-04-21T06:17:16;101521.72;;;8.73;92.36
48630;BME280;34426;52.180;4.462;2023-04-21T06:19:43;101519.53;;;8.75;92.37
48630;BME280;34426;52.180;4.462;2023-04-21T06:22:13;101520.28;;;8.82;92.65
48630;BME280;34426;52.180;4.462;2023-04-21T06:24:41;101531.59;;;8.87;91.71
48630;BME280;34426;52.180;4.462;2023-04-21T06:27:10;101528.66;;;8.82;91.68
48630;BME280;34426;52.180;4.462;2023-04-21T06:29:37;101533.53;;;8.86;91.40
48630;BME280;34426;52.180;4.462;2023-04-21T06:32:05;101519.34;;;8.88;92.51
48630;BME280;34426;52.180;4.462;2023-04-21T06:34:37;101529.88;;;8.86;92.06
48630;BME280;34426;52.180;4.462;2023-04-21T06:37:04;101534.25;;;8.82;91.69
48630;BME280;34426;52.180;4.462;2023-04-21T06:39:32;101533.53;;;8.86;91.84
48630;BME280;34426;52.180;4.462;2023-04-21T06:41:59;101530.75;;;8.98;91.76
48630;BME280;34426;52.180;4.462;2023-04-21T06:44:26;101523.94;;;8.94;91.96
48630;BME280;34426;52.180;4.462;2023-04-21T06:46:53;101531.22;;;8.95;91.52
48630;BME280;34426;52.180;4.462;2023-04-21T06:49:21;101522.03;;;9.06;91.78
48630;BME280;34426;52.180;4.462;2023-04-21T06:51:50;101526.13;;;9.15;90.57
48630;BME280;34426;52.180;4.462;2023-04-21T06:54:17;101524.44;;;9.14;90.60
48630;BME280;34426;52.180;4.462;2023-04-21T06:56:45;101521.56;;;9.09;90.96
48630;BME280;34426;52.180;4.462;2023-04-21T06:59:12;101518.75;;;9.21;91.34
48630;BME280;34426;52.180;4.462;2023-04-21T07:01:40;101517.03;;;9.20;91.48
48630;BME280;34426;52.180;4.462;2023-04-21T07:04:07;101520.31;;;9.28;90.98
48630;BME280;34426;52.180;4.462;2023-04-21T07:06:34;101515.09;;;9.32;90.19
48630;BME280;34426;52.180;4.462;2023-04-21T07:09:04;101513.03;;;9.51;90.61
48630;BME280;34426;52.180;4.462;2023-04-21T07:11:31;101521.22;;;9.69;89.95
48630;BME280;34426;52.180;4.462;2023-04-21T07:13:58;101519.03;;;9.71;88.75
48630;BME280;34426;52.180;4.462;2023-04-21T07:16:26;101514.03;;;9.85;89.11
48630;BME280;34426;52.180;4.462;2023-04-21T07:18:53;101517.38;;;9.98;88.98
48630;BME280;34426;52.180;4.462;2023-04-21T07:21:21;101510.41;;;10.13;88.47
48630;BME280;34426;52.180;4.462;2023-04-21T07:23:48;101507.50;;;10.08;87.18
48630;BME280;34426;52.180;4.462;2023-04-21T07:26:18;101513.91;;;10.31;87.97
48630;BME280;34426;52.180;4.462;2023-04-21T07:28:45;101517.28;;;10.33;88.04
48630;BME280;34426;52.180;4.462;2023-04-21T07:31:12;101516.13;;;10.46;87.49
48630;BME280;34426;52.180;4.462;2023-04-21T07:33:40;101504.06;;;10.29;85.89
48630;BME280;34426;52.180;4.462;2023-04-21T07:36:08;101494.38;;;10.20;86.51
48630;BME280;34426;52.180;4.462;2023-04-21T07:38:35;101502.00;;;10.24;86.99
48630;BME280;34426;52.180;4.462;2023-04-21T07:41:02;101515.44;;;10.39;86.90
48630;BME280;34426;52.180;4.462;2023-04-21T07:43:32;101516.25;;;10.23;85.66
48630;BME280;34426;52.180;4.462;2023-04-21T07:45:59;101509.81;;;10.22;85.35
48630;BME280;34426;52.180;4.462;2023-04-21T07:48:26;101512.47;;;10.17;85.80
48630;BME280;34426;52.180;4.462;2023-04-21T07:50:53;101515.00;;;10.19;85.69
48630;BME280;34426;52.180;4.462;2023-04-21T07:53:21;101528.22;;;10.35;85.64
48630;BME280;34426;52.180;4.462;2023-04-21T07:55:48;101522.69;;;10.40;85.22
48630;BME280;34426;52.180;4.462;2023-04-21T07:58:16;101527.47;;;10.40;85.28
48630;BME280;34426;52.180;4.462;2023-04-21T08:00:45;101525.22;;;10.25;85.41
48630;BME280;34426;52.180;4.462;2023-04-21T08:03:13;101525.47;;;10.12;85.02
48630;BME280;34426;52.180;4.462;2023-04-21T08:05:40;101531.31;;;10.22;84.98
48630;BME280;34426;52.180;4.462;2023-04-21T08:08:08;101520.59;;;10.19;85.74
48630;BME280;34426;52.180;4.462;2023-04-21T08:10:35;101525.50;;;10.40;85.57
48630;BME280;34426;52.180;4.462;2023-04-21T08:13:02;101522.75;;;10.57;84.30
48630;BME280;34426;52.180;4.462;2023-04-21T08:15:29;101518.88;;;10.75;84.07
48630;BME280;34426;52.180;4.462;2023-04-21T08:17:58;101515.06;;;10.81;82.41
48630;BME280;34426;52.180;4.462;2023-04-21T08:20:26;101517.34;;;11.00;81.41
48630;BME280;34426;52.180;4.462;2023-04-21T08:22:53;101509.63;;;10.91;80.69
48630;BME280;34426;52.180;4.462;2023-04-21T08:25:22;101516.00;;;11.03;80.83
48630;BME280;34426;52.180;4.462;2023-04-21T08:27:49;101515.31;;;10.96;80.41
48630;BME280;34426;52.180;4.462;2023-04-21T08:30:19;101508.88;;;11.12;80.13
48630;BME280;34426;52.180;4.462;2023-04-21T08:32:47;101516.84;;;11.20;79.43
48630;BME280;34426;52.180;4.462;2023-04-21T08:35:16;101516.47;;;11.33;78.96
48630;BME280;34426;52.180;4.462;2023-04-21T08:37:43;101513.91;;;11.49;79.21
48630;BME280;34426;52.180;4.462;2023-04-21T08:40:11;101513.97;;;11.54;77.77
48630;BME280;34426;52.180;4.462;2023-04-21T08:42:39;101519.50;;;11.49;77.38
48630;BME280;34426;52.180;4.462;2023-04-21T08:45:07;101517.50;;;11.66;77.05
48630;BME280;34426;52.180;4.462;2023-04-21T08:47:38;101510.84;;;11.72;76.18
48630;BME280;34426;52.180;4.462;2023-04-21T08:50:09;101515.97;;;11.97;75.78
48630;BME280;34426;52.180;4.462;2023-04-21T08:52:39;101504.44;;;11.93;76.13
48630;BME280;34426;52.180;4.462;2023-04-21T08:55:07;101496.84;;;12.16;75.20
48630;BME280;34426;52.180;4.462;2023-04-21T08:57:36;101490.19;;;12.22;73.60
48630;BME280;34426;52.180;4.462;2023-04-21T09:00:04;101489.13;;;12.28;73.81
48630;BME280;34426;52.180;4.462;2023-04-21T09:02:31;101498.19;;;12.35;73.38
48630;BME280;34426;52.180;4.462;2023-04-21T09:04:58;101499.28;;;12.34;72.57
48630;BME280;34426;52.180;4.462;2023-04-21T09:07:33;101493.41;;;12.36;71.70
48630;BME280;34426;52.180;4.462;2023-04-21T09:10:03;101498.19;;;12.35;72.40
48630;BME280;34426;52.180;4.462;2023-04-21T09:12:31;101495.59;;;12.28;71.92
48630;BME280;34426;52.180;4.462;2023-04-21T09:14:58;101495.97;;;12.37;71.47
48630;BME280;34426;52.180;4.462;2023-04-21T09:17:31;101493.34;;;12.57;71.41
48630;BME280;34426;52.180;4.462;2023-04-21T09:20:12;101492.09;;;12.43;71.33
48630;BME280;34426;52.180;4.462;2023-04-21T09:22:39;101491.84;;;12.77;70.85
48630;BME280;34426;52.180;4.462;2023-04-21T09:25:09;101492.88;;;12.65;71.54
48630;BME280;34426;52.180;4.462;2023-04-21T09:27:36;101487.97;;;12.51;71.09
48630;BME280;34426;52.180;4.462;2023-04-21T09:30:05;101497.72;;;12.43;71.34
48630;BME280;34426;52.180;4.462;2023-04-21T09:32:36;101504.34;;;12.64;71.13
48630;BME280;34426;52.180;4.462;2023-04-21T09:35:04;101503.78;;;12.62;69.79
48630;BME280;34426;52.180;4.462;2023-04-21T09:37:32;101486.03;;;12.51;69.77
48630;BME280;34426;52.180;4.462;2023-04-21T09:39:59;101489.53;;;12.69;70.09
48630;BME280;34426;52.180;4.462;2023-04-21T09:42:31;101486.34;;;12.87;69.83
48630;BME280;34426;52.180;4.462;2023-04-21T09:44:58;101484.16;;;12.94;70.01
48630;BME280;34426;52.180;4.462;2023-04-21T09:47:28;101488.13;;;13.03;69.13
48630;BME280;34426;52.180;4.462;2023-04-21T09:49:57;101478.19;;;13.22;68.28
48630;BME280;34426;52.180;4.462;2023-04-21T09:52:28;101474.63;;;13.00;68.38
48630;BME280;34426;52.180;4.462;2023-04-21T09:55:00;101481.34;;;12.94;68.76
48630;BME280;34426;52.180;4.462;2023-04-21T09:57:31;101482.59;;;13.13;67.63
48630;BME280;34426;52.180;4.462;2023-04-21T10:00:00;101479.97;;;13.34;68.19
48630;BME280;34426;52.180;4.462;2023-04-21T10:02:30;101475.28;;;13.54;67.22
48630;BME280;34426;52.180;4.462;2023-04-21T10:04:57;101475.09;;;13.66;68.00
48630;BME280;34426;52.180;4.462;2023-04-21T10:07:25;101480.78;;;13.81;66.90
48630;BME280;34426;52.180;4.462;2023-04-21T10:09:55;101476.84;;;13.82;66.68
48630;BME280;34426;52.180;4.462;2023-04-21T10:12:23;101484.13;;;13.73;65.98
48630;BME280;34426;52.180;4.462;2023-04-21T10:14:54;101477.44;;;13.84;66.05
48630;BME280;34426;52.180;4.462;2023-04-21T10:17:23;101473.03;;;14.14;67.44
48630;BME280;34426;52.180;4.462;2023-04-21T10:19:51;101476.97;;;14.13;67.00
48630;BME280;34426;52.180;4.462;2023-04-21T10:22:28;101479.13;;;13.90;67.70
48630;BME280;34426;52.180;4.462;2023-04-21T10:24:57;101471.00;;;14.04;67.66
48630;BME280;34426;52.180;4.462;2023-04-21T10:27:36;101464.53;;;13.98;68.90
48630;BME280;34426;52.180;4.462;2023-04-21T10:30:30;101465.66;;;13.97;67.79
48630;BME280;34426;52.180;4.462;2023-04-21T10:33:03;101462.56;;;13.99;68.87
48630;BME280;34426;52.180;4.462;2023-04-21T10:35:57;101453.25;;;13.93;69.93
48630;BME280;34426;52.180;4.462;2023-04-21T10:38:35;101449.94;;;14.12;68.21
48630;BME280;34426;52.180;4.462;2023-04-21T10:41:25;101457.28;;;14.23;68.45
48630;BME280;34426;52.180;4.462;2023-04-21T10:43:54;101451.69;;;14.28;67.97
48630;BME280;34426;52.180;4.462;2023-04-21T10:46:34;101439.31;;;14.29;67.00
48630;BME280;34426;52.180;4.462;2023-04-21T10:49:09;101442.38;;;14.32;67.29
48630;BME280;34426;52.180;4.462;2023-04-21T10:52:03;101430.84;;;14.39;67.16
48630;BME280;34426;52.180;4.462;2023-04-21T10:54:36;101434.25;;;14.41;67.07
48630;BME280;34426;52.180;4.462;2023-04-21T10:57:06;101433.44;;;14.61;66.77
48630;BME280;34426;52.180;4.462;2023-04-21T10:59:34;101434.56;;;14.65;65.79
48630;BME280;34426;52.180;4.462;2023-04-21T11:02:05;101430.06;;;14.79;64.84
48630;BME280;34426;52.180;4.462;2023-04-21T11:04:33;101433.72;;;14.85;65.72
48630;BME280;34426;52.180;4.462;2023-04-21T11:07:06;101427.22;;;14.94;64.33
48630;BME280;34426;52.180;4.462;2023-04-21T11:09:35;101420.19;;;15.07;63.05
48630;BME280;34426;52.180;4.462;2023-04-21T11:12:03;101420.69;;;15.29;61.45
48630;BME280;34426;52.180;4.462;2023-04-21T11:14:31;101416.72;;;15.30;62.59
48630;BME280;34426;52.180;4.462;2023-04-21T11:16:58;101418.09;;;15.43;63.56
48630;BME280;34426;52.180;4.462;2023-04-21T11:19:27;101415.00;;;15.50;62.73
48630;BME280;34426;52.180;4.462;2023-04-21T11:21:58;101406.84;;;15.43;63.34
48630;BME280;34426;52.180;4.462;2023-04-21T11:24:28;101408.16;;;15.66;61.35
48630;BME280;34426;52.180;4.462;2023-04-21T11:26:56;101403.44;;;16.06;61.66
48630;BME280;34426;52.180;4.462;2023-04-21T11:29:23;101387.91;;;16.47;58.60
48630;BME280;34426;52.180;4.462;2023-04-21T11:31:51;101387.41;;;16.40;58.73
48630;BME280;34426;52.180;4.462;2023-04-21T11:34:20;101391.53;;;16.14;60.02
48630;BME280;34426;52.180;4.462;2023-04-21T11:36:50;101386.81;;;16.43;59.80
48630;BME280;34426;52.180;4.462;2023-04-21T11:39:19;101383.69;;;16.84;59.80
48630;BME280;34426;52.180;4.462;2023-04-21T11:41:48;101383.38;;;16.46;59.15
48630;BME280;34426;52.180;4.462;2023-04-21T11:44:31;101381.00;;;16.63;59.48
48630;BME280;34426;52.180;4.462;2023-04-21T11:46:59;101368.41;;;16.85;59.98
48630;BME280;34426;52.180;4.462;2023-04-21T11:49:27;101370.84;;;16.62;58.56
48630;BME280;34426;52.180;4.462;2023-04-21T11:51:56;101369.97;;;16.33;57.92
48630;BME280;34426;52.180;4.462;2023-04-21T11:54:24;101365.75;;;16.65;57.59
48630;BME280;34426;52.180;4.462;2023-04-21T11:56:51;101367.38;;;17.00;56.70
48630;BME280;34426;52.180;4.462;2023-04-21T11:59:22;101367.09;;;17.01;56.16
48630;BME280;34426;52.180;4.462;2023-04-21T12:01:50;101352.38;;;17.04;56.03
48630;BME280;34426;52.180;4.462;2023-04-21T12:04:18;101353.56;;;16.98;57.23
48630;BME280;34426;52.180;4.462;2023-04-21T12:06:47;101357.84;;;17.19;56.02
48630;BME280;34426;52.180;4.462;2023-04-21T12:09:22;101354.91;;;17.29;53.74
48630;BME280;34426;52.180;4.462;2023-04-21T12:11:51;101352.16;;;17.24;54.00
48630;BME280;34426;52.180;4.462;2023-04-21T12:14:21;101354.41;;;16.70;55.04
48630;BME280;34426;52.180;4.462;2023-04-21T12:16:50;101351.41;;;17.38;55.36
48630;BME280;34426;52.180;4.462;2023-04-21T12:19:33;101358.13;;;17.42;56.13
48630;BME280;34426;52.180;4.462;2023-04-21T12:22:01;101354.38;;;16.75;58.16
48630;BME280;34426;52.180;4.462;2023-04-21T12:24:30;101353.41;;;16.50;59.47
48630;BME280;34426;52.180;4.462;2023-04-21T12:26:58;101348.44;;;16.42;60.67
48630;BME280;34426;52.180;4.462;2023-04-21T12:29:25;101346.94;;;16.16;60.91
48630;BME280;34426;52.180;4.462;2023-04-21T12:31:53;101341.63;;;16.09;62.09
48630;BME280;34426;52.180;4.462;2023-04-21T12:34:21;101334.97;;;16.29;61.34
48630;BME280;34426;52.180;4.462;2023-04-21T12:36:49;101333.19;;;16.43;60.63
48630;BME280;34426;52.180;4.462;2023-04-21T12:39:16;101326.13;;;16.75;60.71
48630;BME280;34426;52.180;4.462;2023-04-21T12:41:45;101332.00;;;17.31;58.85
48630;BME280;34426;52.180;4.462;2023-04-21T12:44:13;101331.28;;;17.63;59.30
48630;BME280;34426;52.180;4.462;2023-04-21T12:46:41;101326.72;;;17.86;56.54
48630;BME280;34426;52.180;4.462;2023-04-21T12:49:08;101322.25;;;18.36;55.67
48630;BME280;34426;52.180;4.462;2023-04-21T12:51:35;101310.81;;;18.09;56.31
48630;BME280;34426;52.180;4.462;2023-04-21T12:54:04;101317.75;;;17.36;55.92
48630;BME280;34426;52.180;4.462;2023-04-21T12:56:31;101318.19;;;17.01;58.73
48630;BME280;34426;52.180;4.462;2023-04-21T12:59:01;101324.66;;;17.06;57.97
48630;BME280;34426;52.180;4.462;2023-04-21T13:01:29;101310.84;;;18.22;55.39